sensor_id;sensor_type;location;lat;lon;timestamp;temperature;humidity
10447;DHT22;5271;44.422;26.092;2023-06-14T00:00:46;22.20;99.90
10447;DHT22;5271;44.422;26.092;2023-06-14T00:03:14;22.20;99.90
10447;DHT22;5271;44.422;26.092;2023-06-14T00:05:43;22.20;99.90
10447;DHT22;5271;44.422;26.092;2023-06-14T00:08:13;22.10;99.90
10447;DHT22;5271;44.422;26.092;2023-06-14T00:10:41;22.10;99.90
10447;DHT22;5271;44.422;26.092;2023-06-14T00:13:08;22.00;99.90
10447;DHT22;5271;44.422;26.092;2023-06-14T00:15:36;22.00;99.90
10447;DHT22;5271;44.422;26.092;2023-06-14T00:18:03;22.00;99.90
10447;DHT22;5271;44.422;26.092;2023-06-14T00:20:32;22.00;99.90
10447;DHT22;5271;44.422;26.092;2023-06-14T00:22:59;22.00;99.90
10447;DHT22;5271;44.422;26.092;2023-06-14T00:25:28;21.90;99.90
10447;DHT22;5271;44.422;26.092;2023-06-14T00:27:55;21.90;99.90
10447;DHT22;5271;44.422;26.092;2023-06-14T00:30:23;21.80;99.90
10447;DHT22;5271;44.422;26.092;2023-06-14T00:32:50;21.80;99.90
10447;DHT22;5271;44.422;26.092;2023-06-14T00:35:17;21.80;99.90
10447;DHT22;5271;44.422;26.092;2023-06-14T00:37:44;21.80;99.90
10447;DHT22;5271;44.422;26.092;2023-06-14T00:40:11;21.80;99.90
10447;DHT22;5271;44.422;26.092;2023-06-14T00:42:39;21.80;99.90
10447;DHT22;5271;44.422;26.092;2023-06-14T00:45:06;21.80;99.90
10447;DHT22;5271;44.422;26.092;2023-06-14T00:47:35;21.80;99.90
10447;DHT22;5271;44.422;26.092;2023-06-14T00:50:04;21.80;99.90
10447;DHT22;5271;44.422;26.092;2023-06-14T00:52:32;21.80;99.90
10447;DHT22;5271;44.422;26.092;2023-06-14T00:55:00;21.80;99.90
10447;DHT22;5271;44.422;26.092;2023-06-14T00:57:27;21.80;99.90
10447;DHT22;5271;44.422;26.092;2023-06-14T00:59:56;21.70;99.90
10447;DHT22;5271;44.422;26.092;2023-06-14T01:02:23;21.70;99.90
10447;DHT22;5271;44.422;26.092;2023-06-14T01:04:51;21.70;99.90
10447;DHT22;5271;44.422;26.092;2023-06-14T01:07:25;21.70;99.90
10447;DHT22;5271;44.422;26.092;2023-06-14T01:10:07;21.70;99.90
10447;DHT22;5271;44.422;26.092;2023-06-14T01:12:39;21.70;99.90
10447;DHT22;5271;44.422;26.092;2023-06-14T01:15:13;21.70;99.90
10447;DHT22;5271;44.422;26.092;2023-06-14T01:17:40;21.60;99.90
10447;DHT22;5271;44.422;26.092;2023-06-14T01:20:10;21.70;99.90
10447;DHT22;5271;44.422;26.092;2023-06-14T01:22:51;21.70;99.90
10447;DHT22;5271;44.422;26.092;2023-06-14T01:25:18;21.70;99.90
10447;DHT22;5271;44.422;26.092;2023-06-14T01:27:47;21.70;99.90
10447;DHT22;5271;44.422;26.092;2023-06-14T01:30:15;21.70;99.90
10447;DHT22;5271;44.422;26.092;2023-06-14T01:32:43;21.70;99.90
10447;DHT22;5271;44.422;26.092;2023-06-14T01:35:10;21.70;99.90
10447;DHT22;5271;44.422;26.092;2023-06-14T01:37:37;21.70;99.90
10447;DHT22;5271;44.422;26.092;2023-06-14T01:40:07;21.60;99.90
10447;DHT22;5271;44.422;26.092;2023-06-14T01:42:36;21.60;99.90
10447;DHT22;5271;44.422;26.092;2023-06-14T01:45:05;21.60;99.90
10447;DHT22;5271;44.422;26.092;2023-06-14T01:47:33;21.60;99.90
10447;DHT22;5271;44.422;26.092;2023-06-14T01:50:01;21.60;99.90
10447;DHT22;5271;44.422;26.092;2023-06-14T01:52:28;21.60;99.90
10447;DHT22;5271;44.422;26.092;2023-06-14T01:54:54;21.60;99.90
10447;DHT22;5271;44.422;26.092;2023-06-14T01:57:24;21.60;99.90
10447;DHT22;5271;44.422;26.092;2023-06-14T01:59:52;21.60;99.90
10447;DHT22;5271;44.422;26.092;2023-06-14T02:02:19;21.50;99.90
10447;DHT22;5271;44.422;26.092;2023-06-14T02:04:45;21.50;99.90
10447;DHT22;5271;44.422;26.092;2023-06-14T02:07:13;21.50;99.90
10447;DHT22;5271;44.422;26.092;2023-06-14T02:09:40;21.50;99.90
10447;DHT22;5271;44.422;26.092;2023-06-14T02:12:08;21.40;99.90
10447;DHT22;5271;44.422;26.092;2023-06-14T02:14:37;21.30;99.90
10447;DHT22;5271;44.422;26.092;2023-06-14T02:17:05;21.30;99.90
10447;DHT22;5271;44.422;26.092;2023-06-14T02:19:32;21.20;99.90
10447;DHT22;5271;44.422;26.092;2023-06-14T02:21:59;21.20;99.90
10447;DHT22;5271;44.422;26.092;2023-06-14T02:24:26;21.20;99.90
10447;DHT22;5271;44.422;26.092;2023-06-14T02:26:52;21.30;99.90
10447;DHT22;5271;44.422;26.092;2023-06-14T02:29:19;21.30;99.90
10447;DHT22;5271;44.422;26.092;2023-06-14T02:31:47;21.30;99.90
10447;DHT22;5271;44.422;26.092;2023-06-14T02:34:15;21.30;99.90
10447;DHT22;5271;44.422;26.092;2023-06-14T02:36:43;21.30;99.90
10447;DHT22;5271;44.422;26.092;2023-06-14T02:39:10;21.30;99.90
10447;DHT22;5271;44.422;26.092;2023-06-14T02:41:37;21.30;99.90
10447;DHT22;5271;44.422;26.092;2023-06-14T02:44:04;21.30;99.90
10447;DHT22;5271;44.422;26.092;2023-06-14T02:46:31;21.20;99.90
10447;DHT22;5271;44.422;26.092;2023-06-14T02:49:00;21.20;99.90
10447;DHT22;5271;44.422;26.092;2023-06-14T02:51:27;21.20;99.90
10447;DHT22;5271;44.422;26.092;2023-06-14T02:53:53;21.20;99.90
10447;DHT22;5271;44.422;26.092;2023-06-14T02:56:20;21.20;99.90
10447;DHT22;5271;44.422;26.092;2023-06-14T02:58:48;21.20;99.90
10447;DHT22;5271;44.422;26.092;2023-06-14T03:01:16;21.20;99.90
10447;DHT22;5271;44.422;26.092;2023-06-14T03:03:43;21.30;99.90
10447;DHT22;5271;44.422;26.092;2023-06-14T03:06:11;21.20;99.90
10447;DHT22;5271;44.422;26.092;2023-06-14T03:08:39;21.20;99.90
10447;DHT22;5271;44.422;26.092;2023-06-14T03:11:07;21.20;99.90
10447;DHT22;5271;44.422;26.092;2023-06-14T03:13:34;21.20;99.90
10447;DHT22;5271;44.422;26.092;2023-06-14T03:16:03;21.20;99.90
10447;DHT22;5271;44.422;26.092;2023-06-14T03:18:30;21.20;99.90
10447;DHT22;5271;44.422;26.092;2023-06-14T03:21:00;21.20;99.90
10447;DHT22;5271;44.422;26.092;2023-06-14T03:23:29;21.30;99.90
10447;DHT22;5271;44.422;26.092;2023-06-14T03:25:56;21.30;99.90
10447;DHT22;5271;44.422;26.092;2023-06-14T03:28:23;21.20;99.90
10447;DHT22;5271;44.422;26.092;2023-06-14T03:30:50;21.20;99.90
10447;DHT22;5271;44.422;26.092;2023-06-14T03:33:17;21.20;99.90
10447;DHT22;5271;44.422;26.092;2023-06-14T03:35:43;21.20;99.90
10447;DHT22;5271;44.422;26.092;2023-06-14T03:38:10;21.30;99.90
10447;DHT22;5271;44.422;26.092;2023-06-14T03:40:39;21.30;99.90
10447;DHT22;5271;44.422;26.092;2023-06-14T03:43:06;21.30;99.90
10447;DHT22;5271;44.422;26.092;2023-06-14T03:45:33;21.30;99.90
10447;DHT22;5271;44.422;26.092;2023-06-14T03:48:00;21.30;99.90
10447;DHT22;5271;44.422;26.092;2023-06-14T03:50:27;21.30;99.90
10447;DHT22;5271;44.422;26.092;2023-06-14T03:52:53;21.20;99.90
10447;DHT22;5271;44.422;26.092;2023-06-14T03:55:20;21.20;99.90
10447;DHT22;5271;44.422;26.092;2023-06-14T03:57:52;21.30;99.90
10447;DHT22;5271;44.422;26.092;2023-06-14T04:00:18;21.20;99.90
10447;DHT22;5271;44.422;26.092;2023-06-14T04:02:45;21.30;99.90
10447;DHT22;5271;44.422;26.092;2023-06-14T04:05:12;21.30;99.90
10447;DHT22;5271;44.422;26.092;2023-06-14T04:07:41;21.30;99.90
10447;DHT22;5271;44.422;26.092;2023-06-14T04:10:11;21.20;99.90
10447;DHT22;5271;44.422;26.092;2023-06-14T04:12:38;21.10;99.90
10447;DHT22;5271;44.422;26.092;2023-06-14T04:15:07;21.10;99.90
10447;DHT22;5271;44.422;26.092;2023-06-14T04:17:35;21.00;99.90
10447;DHT22;5271;44.422;26.092;2023-06-14T04:20:02;21.00;99.90
10447;DHT22;5271;44.422;26.092;2023-06-14T04:22:30;20.90;99.90
10447;DHT22;5271;44.422;26.092;2023-06-14T04:24:57;20.90;99.90
10447;DHT22;5271;44.422;26.092;2023-06-14T04:27:26;20.80;99.90
10447;DHT22;5271;44.422;26.092;2023-06-14T04:29:54;20.70;99.90
10447;DHT22;5271;44.422;26.092;2023-06-14T04:32:25;20.70;99.90
10447;DHT22;5271;44.422;26.092;2023-06-14T04:34:53;20.70;99.90
10447;DHT22;5271;44.422;26.092;2023-06-14T04:37:21;20.80;99.90
10447;DHT22;5271;44.422;26.092;2023-06-14T04:39:49;20.80;99.90
10447;DHT22;5271;44.422;26.092;2023-06-14T04:42:17;20.80;99.90
10447;DHT22;5271;44.422;26.092;2023-06-14T04:44:46;20.80;99.90
10447;DHT22;5271;44.422;26.092;2023-06-14T04:47:14;20.80;99.90
10447;DHT22;5271;44.422;26.092;2023-06-14T04:49:43;20.80;99.90
10447;DHT22;5271;44.422;26.092;2023-06-14T04:52:10;20.80;99.90
10447;DHT22;5271;44.422;26.092;2023-06-14T04:54:38;20.80;99.90
10447;DHT22;5271;44.422;26.092;2023-06-14T04:57:07;20.80;99.90
10447;DHT22;5271;44.422;26.092;2023-06-14T04:59:34;20.80;99.90
10447;DHT22;5271;44.422;26.092;2023-06-14T05:02:02;20.90;99.90
10447;DHT22;5271;44.422;26.092;2023-06-14T05:04:29;20.90;99.90
10447;DHT22;5271;44.422;26.092;2023-06-14T05:06:57;21.00;99.90
10447;DHT22;5271;44.422;26.092;2023-06-14T05:09:24;21.10;99.90
10447;DHT22;5271;44.422;26.092;2023-06-14T05:11:51;21.10;99.90
10447;DHT22;5271;44.422;26.092;2023-06-14T05:14:17;21.20;99.90
10447;DHT22;5271;44.422;26.092;2023-06-14T05:16:44;21.30;99.90
10447;DHT22;5271;44.422;26.092;2023-06-14T05:19:11;21.30;99.90
10447;DHT22;5271;44.422;26.092;2023-06-14T05:21:38;21.30;99.90
10447;DHT22;5271;44.422;26.092;2023-06-14T05:24:07;21.40;99.90
10447;DHT22;5271;44.422;26.092;2023-06-14T05:26:34;21.40;99.90
10447;DHT22;5271;44.422;26.092;2023-06-14T05:29:01;21.50;99.90
10447;DHT22;5271;44.422;26.092;2023-06-14T05:31:28;21.50;99.90
10447;DHT22;5271;44.422;26.092;2023-06-14T05:33:55;21.50;99.90
10447;DHT22;5271;44.422;26.092;2023-06-14T05:36:22;21.50;99.90
10447;DHT22;5271;44.422;26.092;2023-06-14T05:38:49;21.50;99.90
10447;DHT22;5271;44.422;26.092;2023-06-14T05:41:24;21.60;99.90
10447;DHT22;5271;44.422;26.092;2023-06-14T05:43:51;21.60;99.90
10447;DHT22;5271;44.422;26.092;2023-06-14T05:46:18;21.70;99.90
10447;DHT22;5271;44.422;26.092;2023-06-14T05:48:47;21.80;99.90
10447;DHT22;5271;44.422;26.092;2023-06-14T05:51:14;21.80;99.90
10447;DHT22;5271;44.422;26.092;2023-06-14T05:53:44;21.90;99.90
10447;DHT22;5271;44.422;26.092;2023-06-14T05:56:11;22.00;99.90
10447;DHT22;5271;44.422;26.092;2023-06-14T05:58:39;22.00;99.90
10447;DHT22;5271;44.422;26.092;2023-06-14T06:01:07;22.00;99.90
10447;DHT22;5271;44.422;26.092;2023-06-14T06:03:34;22.00;99.90
10447;DHT22;5271;44.422;26.092;2023-06-14T06:06:00;22.00;99.90
10447;DHT22;5271;44.422;26.092;2023-06-14T06:08:28;22.10;99.90
10447;DHT22;5271;44.422;26.092;2023-06-14T06:10:55;22.10;99.90
10447;DHT22;5271;44.422;26.092;2023-06-14T06:13:22;22.20;99.90
10447;DHT22;5271;44.422;26.092;2023-06-14T06:15:50;22.20;99.90
10447;DHT22;5271;44.422;26.092;2023-06-14T06:18:17;22.20;99.90
10447;DHT22;5271;44.422;26.092;2023-06-14T06:20:44;22.30;99.90
10447;DHT22;5271;44.422;26.092;2023-06-14T06:23:13;22.30;99.90
10447;DHT22;5271;44.422;26.092;2023-06-14T06:25:39;22.40;99.90
10447;DHT22;5271;44.422;26.092;2023-06-14T06:28:07;22.50;99.90
10447;DHT22;5271;44.422;26.092;2023-06-14T06:30:33;22.50;99.90
10447;DHT22;5271;44.422;26.092;2023-06-14T06:33:03;22.60;99.90
10447;DHT22;5271;44.422;26.092;2023-06-14T06:35:29;22.70;99.90
10447;DHT22;5271;44.422;26.092;2023-06-14T06:37:58;22.80;99.90
10447;DHT22;5271;44.422;26.092;2023-06-14T06:40:25;22.80;99.90
10447;DHT22;5271;44.422;26.092;2023-06-14T06:42:52;22.90;99.90
10447;DHT22;5271;44.422;26.092;2023-06-14T06:45:20;22.90;99.90
10447;DHT22;5271;44.422;26.092;2023-06-14T06:47:46;23.00;99.90
10447;DHT22;5271;44.422;26.092;2023-06-14T06:50:15;23.00;99.90
10447;DHT22;5271;44.422;26.092;2023-06-14T06:52:41;23.00;99.90
10447;DHT22;5271;44.422;26.092;2023-06-14T06:55:08;23.10;99.90
10447;DHT22;5271;44.422;26.092;2023-06-14T06:57:36;23.10;99.90
10447;DHT22;5271;44.422;26.092;2023-06-14T07:00:04;23.20;99.90
10447;DHT22;5271;44.422;26.092;2023-06-14T07:02:33;23.20;99.90
10447;DHT22;5271;44.422;26.092;2023-06-14T07:05:00;23.30;99.90
10447;DHT22;5271;44.422;26.092;2023-06-14T07:07:28;23.50;99.90
10447;DHT22;5271;44.422;26.092;2023-06-14T07:09:55;23.70;99.80
10447;DHT22;5271;44.422;26.092;2023-06-14T07:12:23;23.90;99.40
10447;DHT22;5271;44.422;26.092;2023-06-14T07:14:50;24.30;98.80
10447;DHT22;5271;44.422;26.092;2023-06-14T07:17:17;24.60;98.60
10447;DHT22;5271;44.422;26.092;2023-06-14T07:19:43;24.90;97.00
10447;DHT22;5271;44.422;26.092;2023-06-14T07:22:10;25.20;96.50
10447;DHT22;5271;44.422;26.092;2023-06-14T07:24:39;25.30;96.00
10447;DHT22;5271;44.422;26.092;2023-06-14T07:27:06;25.40;95.90
10447;DHT22;5271;44.422;26.092;2023-06-14T07:29:33;25.50;96.50
10447;DHT22;5271;44.422;26.092;2023-06-14T07:32:00;25.60;96.20
10447;DHT22;5271;44.422;26.092;2023-06-14T07:34:27;25.50;95.40
10447;DHT22;5271;44.422;26.092;2023-06-14T07:36:53;25.50;95.10
10447;DHT22;5271;44.422;26.092;2023-06-14T07:39:21;25.50;95.10
10447;DHT22;5271;44.422;26.092;2023-06-14T07:41:49;25.50;94.80
10447;DHT22;5271;44.422;26.092;2023-06-14T07:44:16;25.60;94.70
10447;DHT22;5271;44.422;26.092;2023-06-14T07:46:42;25.60;94.60
10447;DHT22;5271;44.422;26.092;2023-06-14T07:49:12;25.70;94.10
10447;DHT22;5271;44.422;26.092;2023-06-14T07:51:38;25.70;94.10
10447;DHT22;5271;44.422;26.092;2023-06-14T07:54:05;25.60;93.60
10447;DHT22;5271;44.422;26.092;2023-06-14T07:56:34;25.60;93.70
10447;DHT22;5271;44.422;26.092;2023-06-14T07:59:02;25.60;93.50
10447;DHT22;5271;44.422;26.092;2023-06-14T08:01:29;25.60;93.50
10447;DHT22;5271;44.422;26.092;2023-06-14T08:03:56;25.80;93.20
10447;DHT22;5271;44.422;26.092;2023-06-14T08:06:23;25.80;93.10
10447;DHT22;5271;44.422;26.092;2023-06-14T08:08:49;26.00;93.10
10447;DHT22;5271;44.422;26.092;2023-06-14T08:11:16;26.10;92.20
10447;DHT22;5271;44.422;26.092;2023-06-14T08:13:43;26.20;92.20
10447;DHT22;5271;44.422;26.092;2023-06-14T08:16:11;26.30;91.80
10447;DHT22;5271;44.422;26.092;2023-06-14T08:18:38;26.40;91.50
10447;DHT22;5271;44.422;26.092;2023-06-14T08:21:05;26.40;91.50
10447;DHT22;5271;44.422;26.092;2023-06-14T08:23:32;26.50;90.80
10447;DHT22;5271;44.422;26.092;2023-06-14T08:25:59;26.60;90.70
10447;DHT22;5271;44.422;26.092;2023-06-14T08:28:27;26.70;90.20
10447;DHT22;5271;44.422;26.092;2023-06-14T08:30:53;26.70;89.60
10447;DHT22;5271;44.422;26.092;2023-06-14T08:33:22;26.70;88.90
10447;DHT22;5271;44.422;26.092;2023-06-14T08:35:49;26.70;89.60
10447;DHT22;5271;44.422;26.092;2023-06-14T08:38:16;26.70;90.20
10447;DHT22;5271;44.422;26.092;2023-06-14T08:40:42;26.80;90.70
10447;DHT22;5271;44.422;26.092;2023-06-14T08:43:09;26.90;91.10
10447;DHT22;5271;44.422;26.092;2023-06-14T08:45:36;27.00;90.90
10447;DHT22;5271;44.422;26.092;2023-06-14T08:48:03;27.10;90.50
10447;DHT22;5271;44.422;26.092;2023-06-14T08:50:32;27.10;90.60
10447;DHT22;5271;44.422;26.092;2023-06-14T08:53:01;27.10;90.30
10447;DHT22;5271;44.422;26.092;2023-06-14T08:55:29;27.10;90.00
10447;DHT22;5271;44.422;26.092;2023-06-14T08:57:57;27.10;89.00
10447;DHT22;5271;44.422;26.092;2023-06-14T09:00:25;27.10;87.10
10447;DHT22;5271;44.422;26.092;2023-06-14T09:02:52;27.20;84.90
10447;DHT22;5271;44.422;26.092;2023-06-14T09:05:23;27.20;84.40
10447;DHT22;5271;44.422;26.092;2023-06-14T09:07:51;27.10;81.30
10447;DHT22;5271;44.422;26.092;2023-06-14T09:10:21;27.10;79.80
10447;DHT22;5271;44.422;26.092;2023-06-14T09:12:48;27.00;79.80
10447;DHT22;5271;44.422;26.092;2023-06-14T09:15:15;27.00;80.60
10447;DHT22;5271;44.422;26.092;2023-06-14T09:17:43;27.10;80.10
10447;DHT22;5271;44.422;26.092;2023-06-14T09:20:10;27.20;80.60
10447;DHT22;5271;44.422;26.092;2023-06-14T09:22:39;27.30;80.70
10447;DHT22;5271;44.422;26.092;2023-06-14T09:25:09;27.30;80.00
10447;DHT22;5271;44.422;26.092;2023-06-14T09:27:38;27.30;78.30
10447;DHT22;5271;44.422;26.092;2023-06-14T09:30:08;27.30;79.90
10447;DHT22;5271;44.422;26.092;2023-06-14T09:32:37;27.30;80.30
10447;DHT22;5271;44.422;26.092;2023-06-14T09:35:05;27.20;80.30
10447;DHT22;5271;44.422;26.092;2023-06-14T09:37:33;27.30;79.50
10447;DHT22;5271;44.422;26.092;2023-06-14T09:40:00;27.40;79.50
10447;DHT22;5271;44.422;26.092;2023-06-14T09:42:29;27.50;80.70
10447;DHT22;5271;44.422;26.092;2023-06-14T09:44:56;27.50;81.70
10447;DHT22;5271;44.422;26.092;2023-06-14T09:47:24;27.50;81.30
10447;DHT22;5271;44.422;26.092;2023-06-14T09:49:51;27.50;80.70
10447;DHT22;5271;44.422;26.092;2023-06-14T09:52:20;27.50;81.40
10447;DHT22;5271;44.422;26.092;2023-06-14T09:54:48;27.50;80.40
10447;DHT22;5271;44.422;26.092;2023-06-14T09:57:16;27.60;80.60
10447;DHT22;5271;44.422;26.092;2023-06-14T09:59:46;27.60;80.40
10447;DHT22;5271;44.422;26.092;2023-06-14T10:02:18;27.70;80.60
10447;DHT22;5271;44.422;26.092;2023-06-14T10:04:53;27.60;80.70
10447;DHT22;5271;44.422;26.092;2023-06-14T10:07:25;27.60;81.10
10447;DHT22;5271;44.422;26.092;2023-06-14T10:09:53;27.60;81.40
10447;DHT22;5271;44.422;26.092;2023-06-14T10:12:20;27.70;80.70
10447;DHT22;5271;44.422;26.092;2023-06-14T10:14:50;27.90;80.70
10447;DHT22;5271;44.422;26.092;2023-06-14T10:17:24;27.90;81.00
10447;DHT22;5271;44.422;26.092;2023-06-14T10:19:57;27.90;80.10
10447;DHT22;5271;44.422;26.092;2023-06-14T10:22:32;28.00;79.30
10447;DHT22;5271;44.422;26.092;2023-06-14T10:25:02;28.00;79.10
10447;DHT22;5271;44.422;26.092;2023-06-14T10:27:29;28.00;79.60
10447;DHT22;5271;44.422;26.092;2023-06-14T10:30:06;28.10;79.50
10447;DHT22;5271;44.422;26.092;2023-06-14T10:32:33;28.10;79.60
10447;DHT22;5271;44.422;26.092;2023-06-14T10:35:02;28.20;78.80
10447;DHT22;5271;44.422;26.092;2023-06-14T10:37:31;28.20;78.90
10447;DHT22;5271;44.422;26.092;2023-06-14T10:39:58;28.10;78.60
10447;DHT22;5271;44.422;26.092;2023-06-14T10:42:28;28.20;77.50
10447;DHT22;5271;44.422;26.092;2023-06-14T10:44:58;28.20;77.70
10447;DHT22;5271;44.422;26.092;2023-06-14T10:47:28;28.30;77.80
10447;DHT22;5271;44.422;26.092;2023-06-14T10:49:56;28.40;77.10
10447;DHT22;5271;44.422;26.092;2023-06-14T10:52:26;28.50;76.40
10447;DHT22;5271;44.422;26.092;2023-06-14T10:55:08;28.50;73.80
10447;DHT22;5271;44.422;26.092;2023-06-14T10:57:41;28.50;72.00
10447;DHT22;5271;44.422;26.092;2023-06-14T11:00:10;28.60;71.90
10447;DHT22;5271;44.422;26.092;2023-06-14T11:05:59;28.70;68.10
10447;DHT22;5271;44.422;26.092;2023-06-14T11:09:10;28.70;67.50
10447;DHT22;5271;44.422;26.092;2023-06-14T11:11:42;28.70;67.30
10447;DHT22;5271;44.422;26.092;2023-06-14T11:14:10;28.80;65.80
10447;DHT22;5271;44.422;26.092;2023-06-14T11:16:36;28.70;63.90
10447;DHT22;5271;44.422;26.092;2023-06-14T11:19:03;28.60;64.60
10447;DHT22;5271;44.422;26.092;2023-06-14T11:21:32;28.60;65.80
10447;DHT22;5271;44.422;26.092;2023-06-14T11:23:59;28.60;64.80
10447;DHT22;5271;44.422;26.092;2023-06-14T11:26:27;28.60;65.90
10447;DHT22;5271;44.422;26.092;2023-06-14T11:28:57;28.70;66.70
10447;DHT22;5271;44.422;26.092;2023-06-14T11:31:25;28.70;67.20
10447;DHT22;5271;44.422;26.092;2023-06-14T11:33:54;28.70;68.20
10447;DHT22;5271;44.422;26.092;2023-06-14T11:36:22;28.70;68.10
10447;DHT22;5271;44.422;26.092;2023-06-14T11:38:50;28.70;67.60
10447;DHT22;5271;44.422;26.092;2023-06-14T11:41:24;28.70;68.20
10447;DHT22;5271;44.422;26.092;2023-06-14T11:43:52;28.70;68.50
10447;DHT22;5271;44.422;26.092;2023-06-14T11:46:19;28.80;66.00
10447;DHT22;5271;44.422;26.092;2023-06-14T11:48:49;28.80;65.80
10447;DHT22;5271;44.422;26.092;2023-06-14T11:51:16;28.80;65.40
10447;DHT22;5271;44.422;26.092;2023-06-14T11:53:46;28.80;66.30
10447;DHT22;5271;44.422;26.092;2023-06-14T11:56:14;28.80;66.80
10447;DHT22;5271;44.422;26.092;2023-06-14T11:58:42;28.80;66.50
10447;DHT22;5271;44.422;26.092;2023-06-14T12:01:09;28.70;66.50
10447;DHT22;5271;44.422;26.092;2023-06-14T12:03:36;28.60;66.70
10447;DHT22;5271;44.422;26.092;2023-06-14T12:06:05;28.40;67.10
10447;DHT22;5271;44.422;26.092;2023-06-14T12:08:33;28.20;67.40
10447;DHT22;5271;44.422;26.092;2023-06-14T12:11:04;28.20;67.10
10447;DHT22;5271;44.422;26.092;2023-06-14T12:13:32;28.20;67.40
10447;DHT22;5271;44.422;26.092;2023-06-14T12:15:59;28.10;68.00
10447;DHT22;5271;44.422;26.092;2023-06-14T12:18:33;28.20;67.70
10447;DHT22;5271;44.422;26.092;2023-06-14T12:21:01;28.10;68.00
10447;DHT22;5271;44.422;26.092;2023-06-14T12:23:39;28.20;67.40
10447;DHT22;5271;44.422;26.092;2023-06-14T12:26:06;28.20;65.80
10447;DHT22;5271;44.422;26.092;2023-06-14T12:28:34;28.20;66.50
10447;DHT22;5271;44.422;26.092;2023-06-14T12:31:01;28.40;65.50
10447;DHT22;5271;44.422;26.092;2023-06-14T12:33:28;28.40;65.30
10447;DHT22;5271;44.422;26.092;2023-06-14T12:35:55;28.40;65.50
10447;DHT22;5271;44.422;26.092;2023-06-14T12:38:24;28.20;66.40
10447;DHT22;5271;44.422;26.092;2023-06-14T12:40:50;28.20;65.10
10447;DHT22;5271;44.422;26.092;2023-06-14T12:43:18;28.20;64.20
10447;DHT22;5271;44.422;26.092;2023-06-14T12:45:46;28.30;62.00
10447;DHT22;5271;44.422;26.092;2023-06-14T12:48:13;28.40;61.60
10447;DHT22;5271;44.422;26.092;2023-06-14T12:50:40;28.40;60.30
10447;DHT22;5271;44.422;26.092;2023-06-14T12:53:07;28.40;60.30
10447;DHT22;5271;44.422;26.092;2023-06-14T12:55:34;28.40;60.60
10447;DHT22;5271;44.422;26.092;2023-06-14T12:58:01;28.40;59.20
10447;DHT22;5271;44.422;26.092;2023-06-14T13:00:28;28.40;58.40
10447;DHT22;5271;44.422;26.092;2023-06-14T13:02:57;28.40;57.70
10447;DHT22;5271;44.422;26.092;2023-06-14T13:05:24;28.40;57.70
10447;DHT22;5271;44.422;26.092;2023-06-14T13:07:51;28.40;57.80
10447;DHT22;5271;44.422;26.092;2023-06-14T13:10:18;28.40;57.90
10447;DHT22;5271;44.422;26.092;2023-06-14T13:12:44;28.50;57.50
10447;DHT22;5271;44.422;26.092;2023-06-14T13:15:11;28.40;56.80
10447;DHT22;5271;44.422;26.092;2023-06-14T13:17:38;28.40;55.40
10447;DHT22;5271;44.422;26.092;2023-06-14T13:20:08;28.40;55.70
10447;DHT22;5271;44.422;26.092;2023-06-14T13:22:35;28.20;55.30
10447;DHT22;5271;44.422;26.092;2023-06-14T13:25:04;28.30;55.20
10447;DHT22;5271;44.422;26.092;2023-06-14T13:27:31;28.20;54.40
10447;DHT22;5271;44.422;26.092;2023-06-14T13:29:58;28.20;54.00
10447;DHT22;5271;44.422;26.092;2023-06-14T13:32:25;28.20;53.60
10447;DHT22;5271;44.422;26.092;2023-06-14T13:34:52;28.20;53.70
10447;DHT22;5271;44.422;26.092;2023-06-14T13:37:20;28.20;53.00
10447;DHT22;5271;44.422;26.092;2023-06-14T13:39:46;28.30;52.10
10447;DHT22;5271;44.422;26.092;2023-06-14T13:42:13;28.40;52.60
10447;DHT22;5271;44.422;26.092;2023-06-14T13:44:40;28.40;52.10
10447;DHT22;5271;44.422;26.092;2023-06-14T13:47:07;28.40;52.20
10447;DHT22;5271;44.422;26.092;2023-06-14T13:49:33;28.30;52.60
10447;DHT22;5271;44.422;26.092;2023-06-14T13:52:01;28.40;52.10
10447;DHT22;5271;44.422;26.092;2023-06-14T13:54:30;28.40;52.10
10447;DHT22;5271;44.422;26.092;2023-06-14T13:56:56;28.30;52.00
10447;DHT22;5271;44.422;26.092;2023-06-14T13:59:23;28.30;51.20
10447;DHT22;5271;44.422;26.092;2023-06-14T14:01:50;28.30;51.40
10447;DHT22;5271;44.422;26.092;2023-06-14T14:04:17;28.30;50.90
10447;DHT22;5271;44.422;26.092;2023-06-14T14:06:44;28.40;49.60
10447;DHT22;5271;44.422;26.092;2023-06-14T14:09:11;28.50;49.20
10447;DHT22;5271;44.422;26.092;2023-06-14T14:11:39;28.50;49.30
10447;DHT22;5271;44.422;26.092;2023-06-14T14:14:07;28.50;49.50
10447;DHT22;5271;44.422;26.092;2023-06-14T14:16:35;28.60;49.40
10447;DHT22;5271;44.422;26.092;2023-06-14T14:19:02;28.60;49.50
10447;DHT22;5271;44.422;26.092;2023-06-14T14:21:29;28.50;49.70
10447;DHT22;5271;44.422;26.092;2023-06-14T14:23:56;28.50;49.20
10447;DHT22;5271;44.422;26.092;2023-06-14T14:26:23;28.60;48.40
10447;DHT22;5271;44.422;26.092;2023-06-14T14:28:51;28.60;48.90
10447;DHT22;5271;44.422;26.092;2023-06-14T14:31:18;28.60;47.50
10447;DHT22;5271;44.422;26.092;2023-06-14T14:33:45;28.60;47.50
10447;DHT22;5271;44.422;26.092;2023-06-14T14:36:12;28.60;47.20
10447;DHT22;5271;44.422;26.092;2023-06-14T14:38:39;28.50;47.40
10447;DHT22;5271;44.422;26.092;2023-06-14T14:41:06;28.60;46.60
10447;DHT22;5271;44.422;26.092;2023-06-14T14:43:32;28.60;46.20
10447;DHT22;5271;44.422;26.092;2023-06-14T14:46:00;28.50;46.80
10447;DHT22;5271;44.422;26.092;2023-06-14T14:48:27;28.50;45.40
10447;DHT22;5271;44.422;26.092;2023-06-14T14:50:54;28.60;45.80
10447;DHT22;5271;44.422;26.092;2023-06-14T14:53:21;28.60;45.70
10447;DHT22;5271;44.422;26.092;2023-06-14T14:55:48;28.60;44.60
10447;DHT22;5271;44.422;26.092;2023-06-14T14:58:15;28.60;44.80
10447;DHT22;5271;44.422;26.092;2023-06-14T15:00:43;28.60;44.50
10447;DHT22;5271;44.422;26.092;2023-06-14T15:03:11;28.60;44.40
10447;DHT22;5271;44.422;26.092;2023-06-14T15:05:38;28.70;43.80
10447;DHT22;5271;44.422;26.092;2023-06-14T15:08:05;28.70;45.00
10447;DHT22;5271;44.422;26.092;2023-06-14T15:10:37;28.70;42.90
10447;DHT22;5271;44.422;26.092;2023-06-14T15:13:06;28.70;42.50
10447;DHT22;5271;44.422;26.092;2023-06-14T15:15:32;28.70;42.80
10447;DHT22;5271;44.422;26.092;2023-06-14T15:17:59;28.60;43.10
10447;DHT22;5271;44.422;26.092;2023-06-14T15:20:28;28.70;42.60
10447;DHT22;5271;44.422;26.092;2023-06-14T15:22:54;28.80;42.00
10447;DHT22;5271;44.422;26.092;2023-06-14T15:25:25;28.80;42.00
10447;DHT22;5271;44.422;26.092;2023-06-14T15:27:51;28.80;41.80
10447;DHT22;5271;44.422;26.092;2023-06-14T15:30:18;28.80;41.70
10447;DHT22;5271;44.422;26.092;2023-06-14T15:32:45;28.80;41.70
10447;DHT22;5271;44.422;26.092;2023-06-14T15:35:12;28.80;42.50
10447;DHT22;5271;44.422;26.092;2023-06-14T15:37:40;28.70;41.70